createdAt,value
2018-03-29T00:01:02.406Z,81.20
2018-03-29T00:03:29.860Z,81.10
2018-03-29T00:05:57.337Z,81.20
2018-03-29T00:08:25.149Z,81.20
2018-03-29T00:10:53.000Z,81.10
2018-03-29T00:13:20.459Z,81.20
2018-03-29T00:15:47.930Z,81.10
2018-03-29T00:18:15.404Z,81.10
2018-03-29T00:20:42.860Z,81.00
2018-03-29T00:23:10.341Z,80.90
2018-03-29T00:25:37.784Z,81.00
2018-03-29T00:28:05.997Z,80.70
2018-03-29T00:30:33.483Z,80.70
2018-03-29T00:33:00.950Z,80.70
2018-03-29T00:35:28.421Z,80.80
2018-03-29T00:37:55.873Z,80.80
2018-03-29T00:40:23.345Z,80.90
2018-03-29T00:42:50.801Z,81.00
2018-03-29T00:45:18.264Z,81.10
2018-03-29T00:47:46.510Z,80.80
2018-03-29T00:50:13.973Z,80.80
2018-03-29T00:52:41.462Z,80.70
2018-03-29T00:55:08.926Z,80.80
2018-03-29T00:57:36.391Z,81.00
2018-03-29T01:00:03.875Z,81.20
2018-03-29T01:02:31.325Z,80.90
2018-03-29T01:04:58.802Z,80.70
2018-03-29T01:07:26.253Z,80.50
2018-03-29T01:09:53.774Z,80.60
2018-03-29T01:12:21.992Z,80.60
2018-03-29T01:14:49.469Z,80.60
2018-03-29T01:17:16.917Z,80.50
2018-03-29T01:19:44.381Z,80.60
2018-03-29T01:22:11.852Z,80.60
2018-03-29T01:24:39.304Z,80.70
2018-03-29T01:27:06.773Z,80.60
2018-03-29T01:29:34.223Z,80.70
2018-03-29T01:32:01.727Z,80.60
2018-03-29T01:34:29.210Z,80.50
2018-03-29T01:36:57.423Z,80.60
2018-03-29T01:39:24.909Z,80.70
2018-03-29T01:41:53.146Z,80.70
2018-03-29T01:44:20.645Z,80.70
2018-03-29T01:46:48.109Z,80.70
2018-03-29T01:49:15.613Z,80.70
2018-03-29T01:51:43.084Z,80.80
2018-03-29T01:54:10.558Z,80.90
2018-03-29T01:56:38.009Z,80.90
2018-03-29T01:59:05.474Z,81.00
2018-03-29T02:01:32.953Z,81.00
2018-03-29T02:04:00.410Z,81.00
2018-03-29T02:06:27.876Z,81.00
2018-03-29T02:08:55.437Z,81.10
2018-03-29T02:11:22.922Z,81.10
2018-03-29T02:13:50.397Z,81.10
2018-03-29T02:16:17.880Z,81.20
2018-03-29T02:18:45.351Z,81.30
2018-03-29T02:21:12.832Z,81.40
2018-03-29T02:23:40.286Z,81.30
2018-03-29T02:26:07.746Z,81.30
2018-03-29T02:28:35.227Z,81.20
2018-03-29T02:31:02.698Z,81.10
2018-03-29T02:33:30.928Z,81.50
2018-03-29T02:35:58.379Z,81.50
2018-03-29T02:38:25.951Z,81.50
2018-03-29T02:40:53.418Z,81.40
2018-03-29T02:43:20.889Z,81.30
2018-03-29T02:45:48.369Z,81.30
2018-03-29T02:48:15.807Z,81.50
2018-03-29T02:50:43.276Z,81.50
2018-03-29T02:53:10.743Z,81.40
2018-03-29T02:55:38.233Z,81.30
2018-03-29T02:58:05.698Z,81.30
2018-03-29T03:00:33.953Z,81.30
2018-03-29T03:03:01.414Z,81.30
2018-03-29T03:05:28.874Z,81.10
2018-03-29T03:07:56.454Z,81.10
2018-03-29T03:10:24.693Z,81.20
2018-03-29T03:12:52.160Z,81.20
2018-03-29T03:15:19.629Z,81.30
2018-03-29T03:17:47.097Z,81.30
2018-03-29T03:20:14.585Z,81.30
2018-03-29T03:22:42.037Z,82.00
2018-03-29T03:25:09.513Z,81.10
2018-03-29T03:27:36.976Z,81.00
2018-03-29T03:30:04.523Z,81.00
2018-03-29T03:32:32.005Z,81.00
2018-03-29T03:34:59.457Z,81.00
2018-03-29T03:37:26.916Z,81.00
2018-03-29T03:39:54.403Z,81.10
2018-03-29T03:42:21.852Z,80.90
2018-03-29T03:44:49.332Z,80.90
2018-03-29T03:47:16.796Z,80.90
2018-03-29T03:49:44.270Z,81.70
2018-03-29T03:52:11.720Z,80.90
2018-03-29T03:54:39.209Z,81.00
2018-03-29T03:57:06.696Z,81.10
2018-03-29T03:59:34.201Z,81.10
2018-03-29T04:02:02.434Z,81.30
2018-03-29T04:04:29.913Z,81.30
2018-03-29T04:06:57.380Z,81.30
2018-03-29T04:09:24.845Z,81.50
2018-03-29T04:11:53.085Z,81.60
2018-03-29T04:14:20.567Z,81.60
2018-03-29T04:16:48.024Z,81.50
2018-03-29T04:19:15.508Z,81.40
2018-03-29T04:21:43.728Z,81.30
2018-03-29T04:24:11.180Z,81.40
2018-03-29T04:26:38.673Z,81.30
2018-03-29T04:29:06.141Z,81.30
2018-03-29T04:31:34.380Z,81.30
2018-03-29T04:34:01.853Z,81.20
2018-03-29T04:36:29.325Z,81.20
2018-03-29T04:38:56.805Z,81.40
2018-03-29T04:41:25.054Z,82.00
2018-03-29T04:43:52.529Z,81.80
2018-03-29T04:46:20.772Z,82.20
2018-03-29T04:48:49.009Z,82.40
2018-03-29T04:51:16.499Z,82.40
2018-03-29T04:53:43.967Z,82.40
2018-03-29T04:56:11.440Z,82.50
2018-03-29T04:58:38.911Z,82.60
2018-03-29T05:01:06.402Z,82.60
2018-03-29T05:03:33.853Z,82.70
2018-03-29T05:06:01.306Z,82.90
2018-03-29T05:08:29.572Z,83.00
2018-03-29T05:10:57.817Z,83.10
2018-03-29T05:13:25.305Z,83.10
2018-03-29T05:15:53.537Z,83.00
2018-03-29T05:18:21.781Z,83.80
2018-03-29T05:20:49.364Z,83.00
2018-03-29T05:23:16.833Z,82.90
2018-03-29T05:25:46.210Z,83.00
2018-03-29T05:28:13.755Z,83.10
2018-03-29T05:30:41.234Z,83.30
2018-03-29T05:33:08.735Z,83.40
2018-03-29T05:35:36.190Z,83.40
2018-03-29T05:38:03.690Z,83.40
2018-03-29T05:40:31.150Z,83.40
2018-03-29T05:42:58.901Z,83.60
2018-03-29T05:45:27.157Z,83.60
2018-03-29T05:47:54.605Z,83.60
2018-03-29T05:50:22.064Z,83.60
2018-03-29T05:52:49.551Z,83.50
2018-03-29T05:55:16.996Z,83.40
2018-03-29T05:57:44.482Z,83.40
2018-03-29T06:00:12.106Z,83.40
2018-03-29T06:02:39.586Z,83.20
2018-03-29T06:05:07.094Z,83.30
2018-03-29T06:07:34.987Z,84.10
2018-03-29T06:10:02.523Z,83.00
2018-03-29T06:12:30.032Z,82.90
2018-03-29T06:14:57.527Z,82.80
2018-03-29T06:17:25.754Z,82.60
2018-03-29T06:19:53.252Z,82.50
2018-03-29T06:22:20.710Z,82.60
2018-03-29T06:24:48.205Z,82.50
2018-03-29T06:27:15.683Z,82.30
2018-03-29T06:29:43.165Z,82.30
2018-03-29T06:32:10.643Z,82.70
2018-03-29T06:34:38.106Z,82.20
2018-03-29T06:37:05.582Z,82.20
2018-03-29T06:39:33.037Z,82.30
2018-03-29T06:42:00.511Z,82.20
2018-03-29T06:44:27.989Z,81.80
2018-03-29T06:46:55.510Z,82.50
2018-03-29T06:49:23.761Z,81.30
2018-03-29T06:51:51.236Z,81.30
2018-03-29T06:54:18.695Z,81.30
2018-03-29T06:56:46.173Z,81.30
2018-03-29T06:59:13.621Z,81.20
2018-03-29T07:01:41.102Z,81.00
2018-03-29T07:04:08.581Z,81.00
2018-03-29T07:06:36.073Z,80.70
2018-03-29T07:09:03.525Z,80.80
2018-03-29T07:11:31.010Z,80.60
2018-03-29T07:13:58.461Z,80.40
2018-03-29T07:16:25.922Z,80.50
2018-03-29T07:18:53.402Z,80.20
2018-03-29T07:21:20.861Z,80.20
2018-03-29T07:23:48.352Z,80.20
2018-03-29T07:26:15.806Z,80.20
2018-03-29T07:28:43.324Z,80.30
2018-03-29T07:31:10.803Z,80.10
2018-03-29T07:33:38.285Z,80.10
2018-03-29T07:36:06.510Z,79.80
2018-03-29T07:38:33.993Z,79.80
2018-03-29T07:41:01.494Z,79.60
2018-03-29T07:43:28.976Z,79.20
2018-03-29T07:45:56.454Z,78.90
2018-03-29T07:48:23.965Z,78.60
2018-03-29T07:50:52.218Z,78.00
2018-03-29T07:53:19.705Z,78.00
2018-03-29T07:55:47.975Z,78.30
2018-03-29T07:58:15.405Z,78.20
2018-03-29T08:00:42.878Z,78.20
2018-03-29T08:03:10.332Z,78.30
2018-03-29T08:05:37.796Z,78.00
2018-03-29T08:08:06.022Z,77.70
2018-03-29T08:10:33.509Z,77.70
2018-03-29T08:13:00.966Z,77.90
2018-03-29T08:15:28.444Z,78.00
2018-03-29T08:17:55.894Z,77.70
2018-03-29T08:20:23.344Z,77.30
2018-03-29T08:22:50.819Z,77.30
2018-03-29T08:25:18.297Z,77.40
2018-03-29T08:27:45.760Z,78.30
2018-03-29T08:30:13.245Z,77.50
2018-03-29T08:32:40.698Z,77.60
2018-03-29T08:35:08.181Z,77.60
2018-03-29T08:37:35.637Z,77.30
2018-03-29T08:40:03.173Z,77.30
2018-03-29T08:42:30.624Z,77.50
2018-03-29T08:44:58.080Z,77.50
2018-03-29T08:47:26.491Z,77.60
2018-03-29T08:49:53.967Z,77.50
2018-03-29T08:52:21.441Z,77.10
2018-03-29T08:54:48.902Z,76.50
2018-03-29T08:57:17.151Z,76.30
2018-03-29T08:59:44.616Z,76.30
2018-03-29T09:02:12.117Z,75.80
2018-03-29T09:04:39.574Z,75.60
2018-03-29T09:07:07.037Z,75.30
2018-03-29T09:09:34.522Z,75.30
2018-03-29T09:12:01.993Z,75.00
2018-03-29T09:14:29.477Z,75.30
2018-03-29T09:16:56.929Z,75.20
2018-03-29T09:19:24.411Z,75.10
2018-03-29T09:21:52.629Z,74.40
2018-03-29T09:24:20.152Z,74.40
2018-03-29T09:26:47.560Z,74.50
2018-03-29T09:29:15.038Z,74.20
2018-03-29T09:31:42.486Z,73.70
2018-03-29T09:34:09.977Z,73.70
2018-03-29T09:36:38.200Z,73.20
2018-03-29T09:39:05.725Z,73.20
2018-03-29T09:41:33.229Z,73.10
2018-03-29T09:44:00.676Z,73.00
2018-03-29T09:46:28.159Z,72.50
2018-03-29T09:48:55.604Z,71.10
2018-03-29T09:51:23.086Z,70.70
2018-03-29T09:53:50.543Z,70.20
2018-03-29T09:56:18.022Z,69.30
2018-03-29T09:58:46.270Z,69.40
2018-03-29T10:01:13.749Z,69.30
2018-03-29T10:03:41.200Z,69.30
2018-03-29T10:06:15.190Z,67.90
2018-03-29T10:08:42.684Z,67.80
2018-03-29T10:11:10.136Z,68.30
2018-03-29T10:13:37.593Z,68.10
2018-03-29T10:16:05.079Z,68.50
2018-03-29T10:18:32.591Z,67.30
2018-03-29T10:21:00.041Z,67.00
2018-03-29T10:23:27.525Z,67.10
2018-03-29T10:25:55.004Z,67.00
2018-03-29T10:28:22.462Z,66.70
2018-03-29T10:30:49.945Z,66.50
2018-03-29T10:33:17.442Z,66.00
2018-03-29T10:35:44.920Z,65.30
2018-03-29T10:38:13.206Z,66.50
2018-03-29T10:40:41.452Z,66.40
2018-03-29T10:43:08.896Z,66.40
2018-03-29T10:45:36.376Z,64.90
2018-03-29T10:48:03.830Z,63.60
2018-03-29T10:50:31.326Z,63.80
2018-03-29T10:52:58.768Z,65.80
2018-03-29T10:55:26.213Z,67.20
2018-03-29T10:57:53.680Z,68.20
2018-03-29T11:00:21.290Z,69.20
2018-03-29T11:02:48.760Z,69.60
2018-03-29T11:05:16.201Z,69.70
2018-03-29T11:07:43.668Z,69.70
2018-03-29T11:10:11.137Z,69.50
2018-03-29T11:12:38.576Z,69.80
2018-03-29T11:15:06.049Z,70.20
2018-03-29T11:17:33.530Z,70.30
2018-03-29T11:20:01.015Z,70.20
2018-03-29T11:22:29.233Z,70.60
2018-03-29T11:24:56.772Z,70.60
2018-03-29T11:27:24.249Z,70.30
2018-03-29T11:29:51.758Z,69.90
2018-03-29T11:32:19.977Z,69.40
2018-03-29T11:34:47.453Z,69.40
2018-03-29T11:37:14.909Z,68.60
2018-03-29T11:39:42.395Z,68.90
2018-03-29T11:42:09.851Z,69.10
2018-03-29T11:44:37.350Z,68.90
2018-03-29T11:47:04.806Z,68.70
2018-03-29T11:49:32.267Z,67.90
2018-03-29T11:51:59.743Z,67.90
2018-03-29T11:54:27.221Z,67.90
2018-03-29T11:56:54.689Z,67.40
2018-03-29T11:59:22.253Z,67.40
2018-03-29T12:01:49.741Z,67.60
2018-03-29T12:04:17.978Z,67.60
2018-03-29T12:06:46.225Z,67.10
2018-03-29T12:09:13.716Z,67.10
2018-03-29T12:11:41.167Z,64.40
2018-03-29T12:14:08.641Z,65.10
2018-03-29T12:16:36.105Z,65.60
2018-03-29T12:19:03.565Z,66.20
2018-03-29T12:21:31.041Z,66.20
2018-03-29T12:23:59.274Z,67.50
2018-03-29T12:26:26.772Z,67.50
2018-03-29T12:28:54.329Z,68.40
2018-03-29T12:31:22.541Z,68.90
2018-03-29T12:33:50.015Z,68.90
2018-03-29T12:36:17.463Z,69.10
2018-03-29T12:38:44.942Z,68.10
2018-03-29T12:41:12.574Z,67.20
2018-03-29T12:43:40.025Z,66.80
2018-03-29T12:46:07.519Z,67.10
2018-03-29T12:48:34.968Z,67.80
2018-03-29T12:51:02.466Z,68.60
2018-03-29T12:53:29.909Z,68.50
2018-03-29T12:55:57.357Z,68.40
2018-03-29T12:58:24.835Z,66.50
2018-03-29T13:00:52.283Z,65.40
2018-03-29T13:03:19.754Z,65.10
2018-03-29T13:05:47.233Z,65.60
2018-03-29T13:08:14.710Z,65.90
2018-03-29T13:10:42.153Z,65.90
2018-03-29T13:13:09.618Z,66.50
2018-03-29T13:15:37.100Z,66.30
2018-03-29T13:18:04.672Z,66.30
2018-03-29T13:20:32.112Z,66.60
2018-03-29T13:22:59.561Z,66.40
2018-03-29T13:25:27.036Z,65.20
2018-03-29T13:27:54.482Z,65.20
2018-03-29T13:30:21.943Z,65.40
2018-03-29T13:32:49.417Z,65.90
2018-03-29T13:35:16.899Z,64.60
2018-03-29T13:37:44.345Z,64.40
2018-03-29T13:40:11.798Z,63.90
2018-03-29T13:42:39.269Z,63.70
2018-03-29T13:45:06.713Z,62.40
2018-03-29T13:47:34.184Z,62.80
2018-03-29T13:50:01.649Z,59.30
2018-03-29T13:52:29.099Z,57.80
2018-03-29T13:54:56.566Z,53.70
2018-03-29T13:57:24.027Z,52.70
2018-03-29T13:59:51.518Z,51.10
2018-03-29T14:02:19.001Z,53.80
2018-03-29T14:04:46.473Z,50.60
2018-03-29T14:07:13.948Z,46.60
2018-03-29T14:09:41.409Z,43.40
2018-03-29T14:12:08.894Z,39.60
2018-03-29T14:14:37.113Z,37.40
2018-03-29T14:17:04.601Z,37.30
2018-03-29T14:19:32.110Z,36.40
2018-03-29T14:21:59.561Z,32.70
2018-03-29T14:24:27.017Z,32.90
2018-03-29T14:26:54.525Z,33.60
2018-03-29T14:29:22.016Z,32.80
2018-03-29T14:31:49.490Z,30.00
2018-03-29T14:34:17.898Z,27.90
2018-03-29T14:36:46.121Z,26.80
2018-03-29T14:39:14.372Z,27.10
2018-03-29T14:41:41.828Z,26.90
2018-03-29T14:44:09.310Z,26.80
2018-03-29T14:46:36.769Z,27.70
2018-03-29T14:49:04.258Z,28.20
2018-03-29T14:51:31.716Z,29.90
2018-03-29T14:53:59.192Z,29.50
2018-03-29T14:56:26.652Z,29.80
2018-03-29T14:58:54.101Z,29.60
2018-03-29T15:01:21.569Z,30.00
2018-03-29T15:03:49.052Z,29.70
2018-03-29T15:06:16.529Z,30.70
2018-03-29T15:08:44.765Z,29.10
2018-03-29T15:11:12.229Z,29.00
2018-03-29T15:13:39.746Z,28.00
2018-03-29T15:16:07.162Z,27.60
2018-03-29T15:18:34.677Z,26.20
2018-03-29T15:21:02.158Z,26.70
2018-03-29T15:23:29.613Z,26.80
2018-03-29T15:25:57.065Z,26.60
2018-03-29T15:28:24.546Z,25.60
2018-03-29T15:30:52.019Z,25.90
2018-03-29T15:33:19.493Z,25.60
2018-03-29T15:35:46.950Z,24.90
2018-03-29T15:38:14.416Z,24.70
2018-03-29T15:40:42.656Z,25.00
2018-03-29T15:43:10.117Z,24.50
2018-03-29T15:45:37.600Z,24.50
2018-03-29T15:48:05.889Z,24.00
2018-03-29T15:50:34.146Z,24.20
2018-03-29T15:53:01.625Z,24.10
2018-03-29T15:55:29.856Z,24.10
2018-03-29T15:57:57.328Z,24.00
2018-03-29T16:00:24.782Z,24.00
2018-03-29T16:02:52.256Z,24.30
2018-03-29T16:05:19.724Z,23.90
2018-03-29T16:07:47.237Z,23.80
2018-03-29T16:10:14.712Z,23.20
2018-03-29T16:12:42.216Z,23.60
2018-03-29T16:15:09.664Z,23.60
2018-03-29T16:17:37.125Z,23.30
2018-03-29T16:20:04.609Z,23.40
2018-03-29T16:22:32.093Z,23.50
2018-03-29T16:24:59.552Z,22.90
2018-03-29T16:27:27.040Z,23.20
2018-03-29T16:29:55.285Z,23.80
2018-03-29T16:32:22.763Z,23.30
2018-03-29T16:34:51.011Z,23.80
2018-03-29T16:37:18.482Z,23.80
2018-03-29T16:39:46.031Z,24.40
2018-03-29T16:42:13.513Z,24.70
2018-03-29T16:44:41.004Z,24.70
2018-03-29T16:47:08.480Z,24.90
2018-03-29T16:49:36.788Z,25.00
2018-03-29T16:52:04.287Z,25.40
2018-03-29T16:54:31.808Z,25.50
2018-03-29T16:56:59.264Z,25.80
2018-03-29T16:59:26.769Z,25.80
2018-03-29T17:01:54.208Z,25.30
2018-03-29T17:04:21.660Z,25.40
2018-03-29T17:06:49.142Z,25.00
2018-03-29T17:09:16.673Z,25.30
2018-03-29T17:11:44.104Z,25.70
2018-03-29T17:14:11.581Z,26.10
2018-03-29T17:16:39.048Z,26.20
2018-03-29T17:19:06.520Z,26.60
2018-03-29T17:21:33.956Z,27.20
2018-03-29T17:24:01.457Z,28.00
2018-03-29T17:26:29.686Z,29.80
2018-03-29T17:28:57.208Z,29.70
2018-03-29T17:31:24.649Z,30.70
2018-03-29T17:33:52.912Z,33.10
2018-03-29T17:36:20.414Z,33.00
2018-03-29T17:38:47.904Z,33.70
2018-03-29T17:41:15.502Z,34.40
2018-03-29T17:43:42.941Z,35.30
2018-03-29T17:46:10.396Z,36.30
2018-03-29T17:48:38.185Z,37.00
2018-03-29T17:51:05.927Z,37.60
2018-03-29T17:53:34.390Z,39.40
2018-03-29T17:56:01.873Z,39.30
2018-03-29T17:58:29.340Z,40.00
2018-03-29T18:00:56.838Z,41.00
2018-03-29T18:03:24.304Z,41.80
2018-03-29T18:05:51.753Z,42.60
2018-03-29T18:08:19.589Z,43.30
2018-03-29T18:10:47.125Z,43.90
2018-03-29T18:13:14.641Z,44.40
2018-03-29T18:15:42.125Z,45.00
2018-03-29T18:18:09.617Z,45.70
2018-03-29T18:20:37.101Z,46.10
2018-03-29T18:23:04.588Z,46.60
2018-03-29T18:25:32.065Z,47.10
2018-03-29T18:27:59.562Z,47.60
2018-03-29T18:30:27.783Z,48.30
2018-03-29T18:32:55.234Z,48.40
2018-03-29T18:35:22.745Z,48.80
2018-03-29T18:37:50.194Z,49.20
2018-03-29T18:40:17.660Z,49.40
2018-03-29T18:42:45.121Z,49.70
2018-03-29T18:45:13.393Z,50.10
2018-03-29T18:47:41.043Z,50.20
2018-03-29T18:50:09.304Z,50.90
2018-03-29T18:52:36.809Z,50.80
2018-03-29T18:55:05.142Z,51.30
2018-03-29T18:57:32.841Z,51.30
2018-03-29T19:00:00.433Z,52.10
2018-03-29T19:02:28.066Z,51.80
2018-03-29T19:04:56.325Z,52.20
2018-03-29T19:07:24.044Z,52.20
2018-03-29T19:09:51.728Z,52.60
2018-03-29T19:12:19.421Z,52.80
2018-03-29T19:14:46.896Z,53.20
2018-03-29T19:17:14.500Z,53.40
2018-03-29T19:19:42.026Z,54.20
2018-03-29T19:22:09.555Z,53.70
2018-03-29T19:24:37.037Z,53.80
2018-03-29T19:27:05.308Z,54.20
2018-03-29T19:29:33.661Z,54.40
2018-03-29T19:32:01.471Z,54.40
2018-03-29T19:34:29.871Z,55.70
2018-03-29T19:36:57.384Z,55.60
2018-03-29T19:39:25.082Z,55.70
2018-03-29T19:41:52.883Z,55.80
2018-03-29T19:44:20.506Z,56.00
2018-03-29T19:46:48.096Z,56.20
2018-03-29T19:49:15.612Z,56.30
2018-03-29T19:51:43.080Z,56.40
2018-03-29T19:54:10.553Z,56.50
2018-03-29T19:56:38.160Z,56.50
2018-03-29T19:59:06.555Z,56.50
2018-03-29T20:01:34.043Z,56.60
2018-03-29T20:04:02.269Z,56.80
2018-03-29T20:06:29.741Z,56.70
2018-03-29T20:08:57.236Z,56.80
2018-03-29T20:11:24.685Z,56.90
2018-03-29T20:13:52.925Z,57.10
2018-03-29T20:16:20.389Z,57.10
2018-03-29T20:18:47.873Z,57.30
2018-03-29T20:21:16.090Z,57.50
2018-03-29T20:23:43.568Z,57.50
2018-03-29T20:26:11.049Z,57.50
2018-03-29T20:28:38.561Z,57.60
2018-03-29T20:31:06.024Z,57.80
2018-03-29T20:33:33.480Z,57.90
2018-03-29T20:36:00.946Z,58.10
2018-03-29T20:38:28.431Z,58.10
2018-03-29T20:40:55.905Z,58.20
2018-03-29T20:43:23.373Z,58.30
2018-03-29T20:45:50.888Z,58.50
2018-03-29T20:48:18.367Z,58.60
2018-03-29T20:50:45.832Z,58.60
2018-03-29T20:53:13.331Z,58.70
2018-03-29T20:55:40.779Z,58.80
2018-03-29T20:58:08.277Z,58.80
2018-03-29T21:00:35.746Z,59.00
2018-03-29T21:03:03.228Z,59.10
2018-03-29T21:05:30.714Z,59.20
2018-03-29T21:07:58.176Z,59.40
2018-03-29T21:10:25.649Z,59.50
2018-03-29T21:12:53.128Z,59.70
2018-03-29T21:15:20.664Z,59.80
2018-03-29T21:17:48.126Z,59.90
2018-03-29T21:20:15.672Z,60.00
2018-03-29T21:22:43.166Z,60.00
2018-03-29T21:25:10.682Z,60.10
2018-03-29T21:27:38.884Z,60.60
2018-03-29T21:30:06.339Z,60.60
2018-03-29T21:32:33.817Z,60.70
2018-03-29T21:35:01.292Z,60.80
2018-03-29T21:37:28.748Z,61.00
2018-03-29T21:39:56.246Z,61.00
2018-03-29T21:42:24.477Z,61.10
2018-03-29T21:44:51.965Z,61.10
2018-03-29T21:47:20.245Z,61.20
2018-03-29T21:49:48.519Z,61.30
2018-03-29T21:52:16.761Z,61.30
2018-03-29T21:54:44.220Z,61.30
2018-03-29T21:57:11.664Z,61.30
2018-03-29T21:59:39.905Z,61.30
2018-03-29T22:02:07.377Z,61.30
2018-03-29T22:04:34.883Z,61.40
2018-03-29T22:07:03.088Z,61.50
2018-03-29T22:09:31.338Z,61.60
2018-03-29T22:11:58.798Z,61.60
2018-03-29T22:14:26.269Z,61.60
2018-03-29T22:16:54.536Z,61.70
2018-03-29T22:19:22.043Z,61.70
2018-03-29T22:21:49.514Z,61.90
2018-03-29T22:24:16.990Z,61.90
2018-03-29T22:26:44.437Z,62.00
2018-03-29T22:29:12.694Z,62.10
2018-03-29T22:31:40.154Z,62.00
2018-03-29T22:34:07.625Z,62.20
2018-03-29T22:36:35.096Z,62.20
2018-03-29T22:39:02.601Z,62.30
2018-03-29T22:41:30.909Z,62.40
2018-03-29T22:43:58.390Z,62.40
2018-03-29T22:46:25.836Z,62.50
2018-03-29T22:48:53.313Z,62.50
2018-03-29T22:51:20.768Z,62.50
2018-03-29T22:53:48.236Z,62.60
2018-03-29T22:56:15.693Z,62.50
2018-03-29T22:58:43.173Z,62.60
2018-03-29T23:01:10.660Z,62.40
2018-03-29T23:03:38.118Z,62.40
2018-03-29T23:06:05.605Z,62.40
2018-03-29T23:08:33.077Z,62.50
2018-03-29T23:11:00.534Z,62.50
2018-03-29T23:13:28.042Z,62.60
2018-03-29T23:15:56.261Z,62.60
2018-03-29T23:18:24.503Z,62.60
2018-03-29T23:20:51.973Z,62.60
2018-03-29T23:23:19.578Z,62.80
2018-03-29T23:25:47.038Z,62.90
2018-03-29T23:28:14.540Z,63.00
2018-03-29T23:30:42.021Z,63.10
2018-03-29T23:33:09.496Z,63.20
2018-03-29T23:35:36.952Z,63.40
2018-03-29T23:38:04.432Z,63.30
2018-03-29T23:40:31.893Z,63.30
2018-03-29T23:42:59.344Z,63.50
2018-03-29T23:45:26.822Z,63.50
2018-03-29T23:47:55.097Z,63.50
2018-03-29T23:50:23.320Z,63.70
2018-03-29T23:52:50.785Z,63.70
2018-03-29T23:55:18.299Z,63.70
2018-03-29T23:57:45.772Z,63.80
